Time;durP1;ratioP1;P1;durP2;ratioP2;P2;SDS_P1;SDS_P2;PMS_P1;PMS_P2;Temp;Humidity;BMP_temperature;BMP_pressure;BME280_temperature;BME280_humidity;BME280_pressure;Samples;Min_cycle;Max_cycle;Signal;HPM_P1;HPM_P2
2021/03/06 00:01:45;;;;;;;5.40;3.03;;;0.60;99.90;;;;;;5054098;28;20490;-70
2021/03/06 00:04:12;;;;;;;3.37;3.07;;;0.60;99.90;;;;;;5053387;28;20479;-69
2021/03/06 00:06:38;;;;;;;6.03;4.93;;;0.60;99.90;;;;;;5055728;28;20490;-69
2021/03/06 00:09:06;;;;;;;5.30;3.60;;;0.60;99.90;;;;;;5052928;28;20505;-69
2021/03/06 00:11:33;;;;;;;5.53;3.50;;;0.60;99.90;;;;;;5055066;28;20450;-70
2021/03/06 00:14:00;;;;;;;6.30;3.40;;;0.70;99.90;;;;;;5054088;28;20516;-68
2021/03/06 00:16:26;;;;;;;6.60;5.53;;;0.80;99.90;;;;;;5054925;28;20494;-69
2021/03/06 00:18:53;;;;;;;8.17;3.93;;;0.70;99.90;;;;;;5044365;28;20576;-68
2021/03/06 00:21:19;;;;;;;12.20;4.30;;;0.50;99.90;;;;;;5053407;28;20587;-68
2021/03/06 00:23:47;;;;;;;3.27;2.97;;;0.60;99.90;;;;;;5046805;28;20485;-69
2021/03/06 00:26:14;;;;;;;7.23;3.97;;;0.70;99.90;;;;;;5047935;28;20464;-68
2021/03/06 00:28:42;;;;;;;6.93;4.30;;;0.60;99.90;;;;;;5048638;28;20604;-68
2021/03/06 00:31:08;;;;;;;4.20;2.70;;;0.50;99.90;;;;;;5054683;28;20491;-69
2021/03/06 00:33:35;;;;;;;5.20;4.47;;;0.50;99.90;;;;;;5052079;28;20548;-69
2021/03/06 00:36:02;;;;;;;6.47;4.10;;;0.40;99.90;;;;;;5047481;28;20598;-68
2021/03/06 00:38:28;;;;;;;4.50;2.27;;;0.20;99.90;;;;;;5049971;28;20481;-69
2021/03/06 00:40:55;;;;;;;8.07;4.37;;;0.10;99.90;;;;;;5055582;28;20546;-69
2021/03/06 00:43:22;;;;;;;11.60;6.67;;;0.20;99.90;;;;;;5050668;28;20481;-69
2021/03/06 00:45:49;;;;;;;9.57;4.30;;;0.40;99.90;;;;;;5050358;28;20501;-69
2021/03/06 00:48:16;;;;;;;9.30;5.87;;;0.60;99.90;;;;;;5054477;28;20446;-69
2021/03/06 00:50:42;;;;;;;6.63;5.30;;;0.60;99.90;;;;;;5053734;28;20724;-69
2021/03/06 00:53:09;;;;;;;9.23;6.10;;;0.30;99.90;;;;;;5052819;28;20550;-68
2021/03/06 00:55:36;;;;;;;11.00;6.73;;;0.20;99.90;;;;;;5048485;28;20900;-69
2021/03/06 00:58:02;;;;;;;4.87;3.43;;;0.20;99.90;;;;;;5052221;28;20497;-69
2021/03/06 01:00:29;;;;;;;3.73;2.10;;;0.00;99.90;;;;;;5055573;28;20430;-69
2021/03/06 01:02:57;;;;;;;11.13;4.30;;;0.10;99.90;;;;;;5047711;28;20502;-69
2021/03/06 01:05:23;;;;;;;3.83;3.17;;;0.00;99.90;;;;;;5048942;28;20438;-69
2021/03/06 01:07:50;;;;;;;5.90;3.27;;;0.10;99.90;;;;;;5045063;28;20436;-69
2021/03/06 01:10:20;;;;;;;7.97;3.83;;;0.20;99.90;;;;;;5054628;28;20553;-69
2021/03/06 01:12:47;;;;;;;7.67;4.00;;;0.30;99.90;;;;;;5050364;28;20450;-69
2021/03/06 01:15:14;;;;;;;7.33;3.80;;;0.30;99.90;;;;;;5044858;28;20905;-69
2021/03/06 01:17:41;;;;;;;5.87;3.73;;;0.30;99.90;;;;;;5049580;28;20495;-69
2021/03/06 01:20:10;;;;;;;9.87;4.20;;;0.30;99.90;;;;;;5052443;28;20536;-69
2021/03/06 01:22:36;;;;;;;19.43;4.40;;;0.30;99.90;;;;;;5050656;28;20480;-69
2021/03/06 01:25:04;;;;;;;6.30;4.33;;;0.20;99.90;;;;;;5053739;28;20493;-69
2021/03/06 01:27:31;;;;;;;4.77;4.27;;;0.10;99.90;;;;;;5046676;28;20495;-69
2021/03/06 01:29:57;;;;;;;3.70;3.40;;;0.10;99.90;;;;;;5049889;28;20966;-69
2021/03/06 01:32:24;;;;;;;6.67;3.30;;;0.10;99.90;;;;;;5050730;28;20459;-69
2021/03/06 01:34:51;;;;;;;6.50;4.47;;;0.10;99.90;;;;;;5054777;28;20964;-70
2021/03/06 01:37:18;;;;;;;5.13;4.63;;;0.10;99.90;;;;;;5049446;28;20529;-69
2021/03/06 01:39:45;;;;;;;4.07;3.67;;;0.10;99.90;;;;;;5047543;28;20548;-69
2021/03/06 01:42:12;;;;;;;5.20;3.57;;;0.00;99.90;;;;;;5053538;28;20547;-70
2021/03/06 01:44:38;;;;;;;3.10;2.27;;;0.10;99.90;;;;;;5050449;28;20548;-68
2021/03/06 01:47:05;;;;;;;3.87;3.47;;;0.10;99.90;;;;;;5056065;28;20546;-69
2021/03/06 01:49:31;;;;;;;10.00;4.00;;;0.00;99.90;;;;;;5047923;28;20648;-69
2021/03/06 01:51:59;;;;;;;6.90;3.43;;;-0.10;99.90;;;;;;5055774;28;20549;-70
2021/03/06 01:54:28;;;;;;;4.53;4.10;;;-0.60;99.90;;;;;;5049805;28;20865;-70
2021/03/06 01:56:55;;;;;;;10.27;3.40;;;-0.70;99.90;;;;;;5060228;28;21018;-70
2021/03/06 01:59:21;;;;;;;6.60;4.97;;;-0.50;99.90;;;;;;5057572;28;20565;-69
2021/03/06 02:01:50;;;;;;;6.03;3.20;;;-0.40;99.90;;;;;;5053871;28;20553;-70
2021/03/06 02:04:17;;;;;;;3.30;2.43;;;-0.40;99.90;;;;;;5058129;28;20517;-70
2021/03/06 02:06:44;;;;;;;7.03;2.93;;;-0.40;99.90;;;;;;5054152;28;20579;-70
2021/03/06 02:09:10;;;;;;;6.40;4.30;;;-0.30;99.90;;;;;;5035438;28;20475;-70
2021/03/06 02:11:46;;;;;;;5.73;4.37;;;-0.50;99.90;;;;;;5035412;28;20493;-69
2021/03/06 02:14:31;;;;;;;5.17;3.90;;;-0.50;99.90;;;;;;5053634;28;21255;-70
2021/03/06 02:17:03;;;;;;;3.30;3.03;;;-0.50;99.90;;;;;;5057669;28;20459;-70
2021/03/06 02:20:05;;;;;;;4.03;3.73;;;-0.40;99.90;;;;;;5060898;28;20486;-71
2021/03/06 02:23:10;;;;;;;5.03;3.20;;;-0.30;99.90;;;;;;5026203;28;20425;-68
2021/03/06 02:26:08;;;;;;;4.20;3.43;;;-0.40;99.90;;;;;;5037157;28;20869;-69
2021/03/06 02:28:43;;;;;;;2.53;2.30;;;-0.30;99.90;;;;;;5051777;28;20494;-70
2021/03/06 02:31:14;;;;;;;2.77;2.57;;;-0.40;99.90;;;;;;5057451;28;20567;-70
2021/03/06 02:33:44;;;;;;;16.27;4.33;;;-0.40;99.90;;;;;;5057716;28;20551;-68
2021/03/06 02:36:15;;;;;;;4.83;2.70;;;-0.50;99.90;;;;;;5057497;28;20465;-69
2021/03/06 02:38:42;;;;;;;7.70;2.93;;;-0.60;99.90;;;;;;5054766;28;20650;-69
2021/03/06 02:41:11;;;;;;;6.27;5.10;;;-0.60;99.90;;;;;;5055246;28;20461;-70
2021/03/06 02:43:40;;;;;;;26.40;6.37;;;-0.60;99.90;;;;;;5053066;28;20987;-68
2021/03/06 02:46:08;;;;;;;3.23;2.93;;;-0.60;99.90;;;;;;5053316;28;20497;-68
2021/03/06 02:48:35;;;;;;;2.90;2.57;;;-0.60;99.90;;;;;;5056669;28;20478;-69
2021/03/06 02:51:02;;;;;;;4.73;3.30;;;-0.50;99.90;;;;;;5055865;28;20458;-68
2021/03/06 02:53:29;;;;;;;2.50;2.30;;;-0.50;99.90;;;;;;5050970;28;20449;-68
2021/03/06 02:55:55;;;;;;;6.60;4.07;;;-0.40;99.90;;;;;;5050831;28;21119;-68
2021/03/06 02:58:38;;;;;;;7.30;3.83;;;-0.50;99.90;;;;;;5055162;28;20489;-67
2021/03/06 03:01:11;;;;;;;4.00;3.50;;;-0.50;99.90;;;;;;5053735;28;20535;-69
2021/03/06 03:03:50;;;;;;;2.90;2.60;;;-0.50;99.90;;;;;;5048415;28;22824;-69
2021/03/06 03:06:23;;;;;;;2.97;2.77;;;-1.00;99.90;;;;;;5050814;28;20900;-68
2021/03/06 03:08:59;;;;;;;4.83;2.57;;;-1.10;99.90;;;;;;5047701;28;20561;-69
2021/03/06 03:11:31;;;;;;;2.77;2.57;;;-1.10;99.90;;;;;;5052648;28;20490;-69
2021/03/06 03:14:00;;;;;;;3.20;2.83;;;-1.10;99.90;;;;;;5055384;28;20425;-70
2021/03/06 03:16:31;;;;;;;4.33;3.30;;;-0.80;99.90;;;;;;5052900;28;20534;-70
2021/03/06 03:19:03;;;;;;;8.60;2.60;;;-0.70;99.90;;;;;;5047315;28;20539;-69
2021/03/06 03:21:33;;;;;;;4.40;3.90;;;-0.60;99.90;;;;;;5049268;28;20481;-69
2021/03/06 03:24:04;;;;;;;8.63;3.63;;;-0.60;99.90;;;;;;5049463;28;20442;-68
2021/03/06 03:26:32;;;;;;;4.13;3.30;;;-0.50;99.90;;;;;;5049453;28;20491;-69
2021/03/06 03:29:00;;;;;;;4.53;3.40;;;-0.50;99.90;;;;;;5054678;28;20475;-68
2021/03/06 03:31:28;;;;;;;4.63;3.10;;;-0.50;99.90;;;;;;5056853;28;20553;-69
2021/03/06 03:33:55;;;;;;;4.23;3.83;;;-0.60;99.90;;;;;;5052750;28;20891;-67
2021/03/06 03:36:24;;;;;;;4.53;4.13;;;-0.70;99.90;;;;;;5047448;28;20490;-68
2021/03/06 03:38:51;;;;;;;3.43;3.13;;;-0.70;99.90;;;;;;5053404;28;20571;-68
2021/03/06 03:41:18;;;;;;;4.90;3.83;;;-0.70;99.90;;;;;;5055266;28;20577;-69
2021/03/06 03:43:45;;;;;;;4.60;4.00;;;-0.80;99.90;;;;;;5052851;28;20542;-69
2021/03/06 03:46:12;;;;;;;3.30;3.00;;;-0.80;99.90;;;;;;5054011;28;20498;-69
2021/03/06 03:48:44;;;;;;;9.83;4.10;;;-0.80;99.90;;;;;;5055560;28;20562;-68
2021/03/06 03:51:11;;;;;;;7.87;3.27;;;-0.90;99.90;;;;;;5052670;28;20574;-67
2021/03/06 03:53:39;;;;;;;5.03;4.53;;;-0.90;99.90;;;;;;5049745;28;20867;-69
2021/03/06 03:56:07;;;;;;;4.33;3.50;;;-0.90;99.90;;;;;;5054379;28;21115;-68
2021/03/06 03:58:34;;;;;;;8.63;5.03;;;-0.90;99.90;;;;;;5046489;28;20498;-68
2021/03/06 04:01:01;;;;;;;3.90;3.60;;;-0.80;99.90;;;;;;5051325;28;20894;-69
2021/03/06 04:03:29;;;;;;;6.23;5.63;;;-0.80;99.90;;;;;;5050970;28;20562;-69
2021/03/06 04:05:57;;;;;;;4.87;2.80;;;-0.90;99.90;;;;;;5049899;28;20486;-70
2021/03/06 04:08:24;;;;;;;3.87;3.57;;;-1.00;99.90;;;;;;5052377;28;20628;-69
2021/03/06 04:10:51;;;;;;;3.57;3.37;;;-0.90;99.90;;;;;;5054572;28;20434;-69
2021/03/06 04:13:18;;;;;;;2.97;2.20;;;-0.90;99.90;;;;;;5053165;28;20425;-69
2021/03/06 04:15:45;;;;;;;5.50;4.07;;;-0.90;99.90;;;;;;5046535;28;20537;-69
2021/03/06 04:18:11;;;;;;;3.87;2.83;;;-0.90;99.90;;;;;;5049369;28;20849;-69
2021/03/06 04:20:38;;;;;;;4.23;3.93;;;-0.90;99.90;;;;;;5055995;28;20452;-69
2021/03/06 04:23:05;;;;;;;11.53;3.57;;;-1.00;99.90;;;;;;5052126;28;20543;-69
2021/03/06 04:25:31;;;;;;;2.40;2.17;;;-1.20;99.90;;;;;;5050558;28;20520;-69
2021/03/06 04:27:59;;;;;;;4.43;2.40;;;-1.60;99.90;;;;;;5051642;28;20542;-69
2021/03/06 04:30:26;;;;;;;19.03;4.07;;;-1.50;99.90;;;;;;5054786;28;20560;-70
2021/03/06 04:32:52;;;;;;;3.23;3.03;;;-1.40;99.90;;;;;;5054700;28;20461;-69
2021/03/06 04:35:19;;;;;;;5.00;4.20;;;-1.40;99.90;;;;;;5053766;28;20473;-69
2021/03/06 04:37:46;;;;;;;3.10;2.90;;;-1.50;99.90;;;;;;5055384;28;20437;-69
2021/03/06 04:40:14;;;;;;;3.90;3.60;;;-1.40;99.90;;;;;;5051048;28;20532;-69
2021/03/06 04:42:41;;;;;;;7.97;4.23;;;-1.30;99.90;;;;;;5050915;28;21001;-69
2021/03/06 04:45:10;;;;;;;5.00;4.40;;;-1.30;99.90;;;;;;5053663;28;20476;-69
2021/03/06 04:47:40;;;;;;;4.90;4.13;;;-1.20;99.90;;;;;;5048329;28;20511;-69
2021/03/06 04:50:08;;;;;;;3.93;3.00;;;-1.10;99.90;;;;;;5055513;28;20490;-69
2021/03/06 04:52:34;;;;;;;4.20;2.77;;;-1.10;99.90;;;;;;5053329;28;20544;-69
2021/03/06 04:55:01;;;;;;;3.90;3.50;;;-1.10;99.90;;;;;;5056409;28;20547;-70
2021/03/06 04:57:28;;;;;;;6.97;5.03;;;-1.20;99.90;;;;;;5055440;28;20505;-69
2021/03/06 04:59:54;;;;;;;3.80;3.53;;;-1.10;99.90;;;;;;5051145;28;20487;-68
2021/03/06 05:02:22;;;;;;;6.70;3.63;;;-1.20;99.90;;;;;;5049415;28;20460;-70
2021/03/06 05:04:48;;;;;;;7.23;2.90;;;-1.20;99.90;;;;;;5051696;28;20565;-69
2021/03/06 05:07:15;;;;;;;4.93;4.40;;;-1.20;99.90;;;;;;5052465;28;20549;-69
2021/03/06 05:09:42;;;;;;;6.63;5.50;;;-1.20;99.90;;;;;;5052809;28;21495;-70
2021/03/06 05:12:09;;;;;;;2.90;2.70;;;-1.20;99.90;;;;;;5053715;28;20516;-69
2021/03/06 05:14:35;;;;;;;4.57;4.27;;;-1.30;99.90;;;;;;5053555;28;20978;-68
2021/03/06 05:17:02;;;;;;;6.93;3.77;;;-1.30;99.90;;;;;;5055095;28;20486;-68
2021/03/06 05:19:31;;;;;;;4.80;2.93;;;-1.30;99.90;;;;;;5055074;28;20527;-69
2021/03/06 05:21:58;;;;;;;3.37;3.07;;;-1.30;99.90;;;;;;5057528;28;20463;-69
2021/03/06 05:24:26;;;;;;;11.70;4.97;;;-1.40;99.90;;;;;;5059551;28;20879;-69
2021/03/06 05:27:01;;;;;;;5.03;4.53;;;-1.50;99.90;;;;;;5051617;28;20458;-69
2021/03/06 05:29:28;;;;;;;10.80;5.27;;;-1.40;99.90;;;;;;5050556;28;20482;-70
2021/03/06 05:31:55;;;;;;;9.73;4.37;;;-1.40;99.90;;;;;;5048098;28;26997;-70
2021/03/06 05:34:21;;;;;;;5.77;3.97;;;-1.40;99.90;;;;;;5052226;28;20485;-69
2021/03/06 05:36:50;;;;;;;6.70;4.00;;;-1.40;99.90;;;;;;5054425;28;20482;-70
2021/03/06 05:39:16;;;;;;;4.20;3.80;;;-1.50;99.90;;;;;;5050671;28;21034;-69
2021/03/06 05:41:43;;;;;;;9.03;3.60;;;-1.70;99.90;;;;;;5054626;28;20537;-70
2021/03/06 05:44:11;;;;;;;5.20;4.20;;;-1.70;99.90;;;;;;5049485;28;20568;-69
2021/03/06 05:46:37;;;;;;;5.30;4.80;;;-1.70;99.90;;;;;;5048800;28;20445;-70
2021/03/06 05:49:04;;;;;;;6.63;4.10;;;-1.60;99.90;;;;;;5035882;28;20485;-68
2021/03/06 05:51:34;;;;;;;3.80;3.40;;;-1.60;99.90;;;;;;5053870;28;20542;-69
2021/03/06 05:54:06;;;;;;;7.67;5.30;;;-1.60;99.90;;;;;;5052554;28;20585;-69
2021/03/06 05:56:34;;;;;;;7.20;5.83;;;-1.70;99.90;;;;;;5056198;28;20450;-69
2021/03/06 05:59:03;;;;;;;7.63;5.27;;;-1.50;99.90;;;;;;5059016;28;20512;-70
2021/03/06 06:01:30;;;;;;;11.07;6.40;;;-1.40;99.90;;;;;;5055980;28;20455;-69
2021/03/06 06:04:00;;;;;;;16.80;4.43;;;-1.30;99.90;;;;;;5058346;28;20457;-69
2021/03/06 06:06:27;;;;;;;4.60;3.50;;;-1.20;99.90;;;;;;5054624;28;20508;-68
2021/03/06 06:08:54;;;;;;;19.33;5.33;;;-1.20;99.90;;;;;;5056330;28;20482;-68
2021/03/06 06:11:22;;;;;;;6.23;5.63;;;-1.30;99.90;;;;;;5055620;28;20484;-69
2021/03/06 06:13:49;;;;;;;9.03;4.70;;;-1.30;99.90;;;;;;5055735;28;20479;-69
2021/03/06 06:16:16;;;;;;;6.63;3.40;;;-1.20;99.90;;;;;;5051998;28;20661;-70
2021/03/06 06:18:44;;;;;;;11.33;4.97;;;-1.20;99.90;;;;;;5057280;28;20481;-70
2021/03/06 06:21:39;;;;;;;8.93;4.53;;;-1.20;99.90;;;;;;5053221;28;20774;-70
2021/03/06 06:24:07;;;;;;;7.50;6.20;;;-1.20;99.90;;;;;;5056120;28;20556;-69
2021/03/06 06:26:35;;;;;;;6.30;4.27;;;-1.10;99.90;;;;;;5051568;28;20459;-70
2021/03/06 06:29:02;;;;;;;8.40;3.90;;;-1.00;99.90;;;;;;5056030;28;20457;-70
2021/03/06 06:31:28;;;;;;;3.73;3.43;;;-1.00;99.90;;;;;;5055571;28;20545;-69
2021/03/06 06:33:56;;;;;;;4.87;4.37;;;-1.00;99.90;;;;;;5044708;28;20498;-68
2021/03/06 06:36:33;;;;;;;6.47;5.87;;;-1.00;99.90;;;;;;5049499;28;21084;-68
2021/03/06 06:39:04;;;;;;;7.57;4.87;;;-0.90;99.90;;;;;;5056495;28;20553;-70
2021/03/06 06:41:54;;;;;;;7.27;4.67;;;-0.80;99.90;;;;;;5053474;28;20451;-69
2021/03/06 06:44:22;;;;;;;5.33;4.83;;;-0.80;99.90;;;;;;5057755;28;20469;-72
2021/03/06 06:46:49;;;;;;;8.77;6.10;;;-1.00;99.90;;;;;;5052297;28;20456;-69
2021/03/06 06:49:16;;;;;;;4.10;3.57;;;-1.40;99.90;;;;;;5052709;28;20478;-69
2021/03/06 06:52:02;;;;;;;12.03;5.00;;;-1.60;99.90;;;;;;5057181;28;20458;-70
2021/03/06 06:54:30;;;;;;;7.10;4.20;;;-1.60;99.90;;;;;;5054370;28;20568;-70
2021/03/06 06:57:11;;;;;;;9.60;6.87;;;-1.40;99.90;;;;;;5050546;28;20875;-70
2021/03/06 06:59:40;;;;;;;5.83;5.40;;;-1.00;99.90;;;;;;5055089;28;26947;-70
2021/03/06 07:02:08;;;;;;;10.10;3.90;;;-0.60;99.90;;;;;;5055621;28;20475;-71
2021/03/06 07:04:50;;;;;;;8.10;5.03;;;-0.70;99.90;;;;;;5057535;28;20524;-69
2021/03/06 07:07:18;;;;;;;24.83;6.03;;;-0.60;99.90;;;;;;5054683;28;20487;-69
2021/03/06 07:10:02;;;;;;;11.60;6.00;;;-0.40;99.90;;;;;;5062060;28;20510;-71
2021/03/06 07:12:31;;;;;;;4.90;4.40;;;-0.20;99.90;;;;;;5054828;28;20439;-68
2021/03/06 07:14:58;;;;;;;3.30;2.93;;;-0.10;99.90;;;;;;5055195;28;20557;-68
2021/03/06 07:17:36;;;;;;;4.00;3.70;;;0.20;99.90;;;;;;5050266;28;20438;-69
2021/03/06 07:20:03;;;;;;;7.63;3.60;;;0.50;99.90;;;;;;5057096;28;20578;-69
2021/03/06 07:22:30;;;;;;;6.20;4.57;;;0.50;99.90;;;;;;5062503;28;20454;-69
2021/03/06 07:24:57;;;;;;;5.23;4.73;;;0.60;99.90;;;;;;5057012;28;20424;-69
2021/03/06 07:27:24;;;;;;;16.77;6.50;;;0.60;99.90;;;;;;5051446;28;21089;-70
2021/03/06 07:29:51;;;;;;;9.23;4.87;;;0.80;99.90;;;;;;5060725;28;20437;-69
2021/03/06 07:32:23;;;;;;;10.77;7.37;;;1.00;99.90;;;;;;5058638;28;20458;-69
2021/03/06 07:34:53;;;;;;;5.17;4.53;;;1.10;99.90;;;;;;5055131;28;20644;-69
2021/03/06 07:37:22;;;;;;;7.70;6.17;;;1.30;99.90;;;;;;5056762;28;20558;-69
2021/03/06 07:39:50;;;;;;;7.50;6.43;;;1.50;99.90;;;;;;5061226;28;20512;-69
2021/03/06 07:42:29;;;;;;;7.47;6.50;;;1.80;99.90;;;;;;5056325;28;20838;-69
2021/03/06 07:44:57;;;;;;;5.87;5.37;;;2.50;99.90;;;;;;5060707;28;20429;-69
2021/03/06 07:47:30;;;;;;;8.10;4.83;;;3.10;99.90;;;;;;5058548;28;20850;-69
2021/03/06 07:49:58;;;;;;;6.50;4.43;;;3.40;99.90;;;;;;5058225;28;20529;-69
2021/03/06 07:52:26;;;;;;;16.60;9.60;;;3.60;99.90;;;;;;5056035;28;20515;-68
2021/03/06 07:54:53;;;;;;;5.97;4.97;;;3.70;99.90;;;;;;5050895;28;20477;-69
2021/03/06 07:57:20;;;;;;;9.03;5.77;;;3.60;99.90;;;;;;5060507;28;21152;-67
2021/03/06 07:59:48;;;;;;;5.73;5.20;;;4.10;99.90;;;;;;5040042;28;21221;-69
2021/03/06 08:02:42;;;;;;;6.50;4.63;;;4.40;99.90;;;;;;5061097;28;20599;-68
2021/03/06 08:05:41;;;;;;;11.80;5.50;;;4.60;99.90;;;;;;5029593;28;20464;-69
2021/03/06 08:08:08;;;;;;;7.63;5.83;;;4.70;99.90;;;;;;5057668;28;20486;-69
2021/03/06 08:11:05;;;;;;;7.17;5.80;;;4.80;99.90;;;;;;5042094;28;20475;-70
2021/03/06 08:13:35;;;;;;;12.27;5.63;;;4.80;99.90;;;;;;5057225;28;20476;-70
2021/03/06 08:16:36;;;;;;;11.90;5.80;;;5.20;99.90;;;;;;5060214;28;20448;-69
2021/03/06 08:19:23;;;;;;;9.07;6.43;;;5.10;99.90;;;;;;5057246;28;20969;-69
2021/03/06 08:21:51;;;;;;;7.10;5.03;;;5.80;99.90;;;;;;5055502;28;21105;-69
2021/03/06 08:24:30;;;;;;;9.70;5.37;;;6.20;99.90;;;;;;5055105;28;20964;-69
2021/03/06 08:27:20;;;;;;;9.53;7.20;;;6.10;99.90;;;;;;5051784;28;20478;-69
2021/03/06 08:29:57;;;;;;;6.60;5.90;;;6.20;99.90;;;;;;5054810;28;20552;-69
2021/03/06 08:32:37;;;;;;;9.67;6.40;;;6.30;99.90;;;;;;5052893;28;20484;-68
2021/03/06 08:35:23;;;;;;;8.87;7.07;;;6.90;99.90;;;;;;5054938;28;20904;-69
2021/03/06 08:37:50;;;;;;;6.50;5.33;;;7.40;99.90;;;;;;5051994;28;20486;-69
2021/03/06 08:40:19;;;;;;;8.30;6.80;;;7.80;99.90;;;;;;5054238;28;20562;-70
2021/03/06 08:42:51;;;;;;;9.53;5.30;;;8.70;99.90;;;;;;5055215;28;20452;-69
2021/03/06 08:45:20;;;;;;;16.13;7.77;;;9.60;99.90;;;;;;5051481;28;20471;-69
2021/03/06 08:47:48;;;;;;;7.90;6.40;;;10.30;99.90;;;;;;5054175;28;20462;-69
2021/03/06 08:50:17;;;;;;;10.90;7.03;;;11.20;99.90;;;;;;5049246;28;20511;-69
2021/03/06 08:52:54;;;;;;;11.53;7.00;;;11.90;97.00;;;;;;5051814;28;20814;-68
2021/03/06 08:55:22;;;;;;;7.40;5.80;;;12.70;92.90;;;;;;5052193;28;20520;-69
2021/03/06 08:57:49;;;;;;;7.70;5.70;;;12.80;90.40;;;;;;5050296;28;20490;-69
2021/03/06 09:00:22;;;;;;;8.43;6.10;;;12.70;90.00;;;;;;5058315;28;20628;-69
2021/03/06 09:02:50;;;;;;;5.87;5.27;;;13.00;90.30;;;;;;5053908;28;20450;-70
2021/03/06 09:05:20;;;;;;;7.97;5.40;;;13.60;86.70;;;;;;5049110;28;20454;-69
2021/03/06 09:07:49;;;;;;;7.73;6.37;;;14.00;86.50;;;;;;5052364;28;20458;-69
2021/03/06 09:10:25;;;;;;;6.40;5.30;;;14.30;83.60;;;;;;5052940;28;20958;-69
2021/03/06 09:12:54;;;;;;;13.67;5.13;;;14.90;79.50;;;;;;5056532;28;20557;-69
2021/03/06 09:15:35;;;;;;;6.87;5.27;;;14.30;78.80;;;;;;5054316;28;20458;-69
2021/03/06 09:18:03;;;;;;;7.90;4.93;;;14.20;79.40;;;;;;5055994;28;20493;-69
2021/03/06 09:20:31;;;;;;;7.90;5.43;;;14.00;78.80;;;;;;5053484;28;20883;-69
2021/03/06 09:22:57;;;;;;;12.60;5.67;;;13.70;78.10;;;;;;5057515;28;20533;-69
2021/03/06 09:25:30;;;;;;;8.80;5.13;;;13.70;79.90;;;;;;5054534;28;20846;-70
2021/03/06 09:27:56;;;;;;;14.00;6.27;;;13.50;78.80;;;;;;5051599;28;20965;-70
2021/03/06 09:30:25;;;;;;;6.90;5.47;;;13.60;80.20;;;;;;5053820;28;20513;-69
2021/03/06 09:32:52;;;;;;;9.00;5.70;;;14.40;79.80;;;;;;5055330;28;20487;-69
2021/03/06 09:35:20;;;;;;;8.77;5.63;;;14.70;77.40;;;;;;5053179;28;20843;-69
2021/03/06 09:37:47;;;;;;;6.23;3.97;;;14.70;77.40;;;;;;5052557;28;21038;-69
2021/03/06 09:40:19;;;;;;;8.73;4.37;;;14.90;73.50;;;;;;5056673;28;20482;-69
2021/03/06 09:42:49;;;;;;;11.30;5.00;;;14.00;73.80;;;;;;5058175;28;20443;-69
2021/03/06 09:45:17;;;;;;;6.60;5.23;;;14.20;76.80;;;;;;5048267;28;20544;-69
2021/03/06 09:47:44;;;;;;;6.43;4.20;;;13.90;77.10;;;;;;5055482;28;20796;-69
2021/03/06 09:50:12;;;;;;;10.30;4.90;;;14.70;76.20;;;;;;5049416;28;21156;-68
2021/03/06 09:52:42;;;;;;;8.03;4.13;;;15.90;74.80;;;;;;5052928;28;20488;-69
2021/03/06 09:55:18;;;;;;;6.60;2.80;;;16.40;73.40;;;;;;5052325;28;20443;-69
2021/03/06 09:57:45;;;;;;;6.70;3.00;;;15.90;67.90;;;;;;5045438;28;20462;-68
2021/03/06 10:00:25;;;;;;;7.67;2.70;;;14.60;68.80;;;;;;5051357;28;20829;-68
2021/03/06 10:02:52;;;;;;;4.43;2.30;;;14.70;67.60;;;;;;5054887;28;20893;-67
2021/03/06 10:05:23;;;;;;;3.77;2.10;;;13.50;71.40;;;;;;5054196;28;20487;-70
2021/03/06 10:07:54;;;;;;;3.13;1.70;;;14.10;70.20;;;;;;5050518;28;20462;-68
2021/03/06 10:10:23;;;;;;;3.60;2.30;;;14.70;68.60;;;;;;5060214;28;20500;-70
2021/03/06 10:12:51;;;;;;;2.20;1.57;;;14.60;65.70;;;;;;5060169;28;20460;-69
2021/03/06 10:15:19;;;;;;;5.67;2.30;;;14.80;65.40;;;;;;5057961;28;20633;-70
2021/03/06 10:17:46;;;;;;;3.40;2.40;;;16.10;66.90;;;;;;5055621;28;20454;-69
2021/03/06 10:20:13;;;;;;;2.33;1.30;;;16.50;63.60;;;;;;5058542;28;20483;-68
2021/03/06 10:22:45;;;;;;;4.17;2.13;;;16.10;59.40;;;;;;5054561;28;20807;-68
2021/03/06 10:25:22;;;;;;;2.53;1.93;;;15.00;59.80;;;;;;5058015;28;20463;-69
2021/03/06 10:27:49;;;;;;;5.77;2.03;;;14.70;59.80;;;;;;5057496;28;20450;-69
2021/03/06 10:30:18;;;;;;;6.90;2.00;;;15.10;60.30;;;;;;5054495;28;20482;-69
2021/03/06 10:32:46;;;;;;;4.00;2.30;;;15.10;60.60;;;;;;5058945;28;20460;-68
2021/03/06 10:35:34;;;;;;;6.80;2.50;;;15.30;63.20;;;;;;5056438;28;20467;-68
2021/03/06 10:38:02;;;;;;;2.70;0.80;;;15.70;59.40;;;;;;5046220;28;20452;-69
2021/03/06 10:40:44;;;;;;;4.40;1.77;;;15.20;57.60;;;;;;5052254;28;20502;-69
2021/03/06 10:43:11;;;;;;;5.90;2.03;;;15.60;58.90;;;;;;5055662;28;20511;-69
2021/03/06 10:45:39;;;;;;;4.43;2.33;;;16.60;58.30;;;;;;5056765;28;20486;-72
2021/03/06 10:48:07;;;;;;;4.80;2.10;;;16.90;57.00;;;;;;5047260;28;20967;-69
2021/03/06 10:50:38;;;;;;;4.00;2.60;;;16.80;56.80;;;;;;5058715;28;20835;-69
2021/03/06 10:53:15;;;;;;;7.97;2.63;;;16.10;58.00;;;;;;5058947;28;20537;-69
2021/03/06 10:55:43;;;;;;;3.90;2.43;;;16.40;57.50;;;;;;5061653;28;20475;-69
2021/03/06 10:58:10;;;;;;;5.10;2.53;;;16.30;56.20;;;;;;5054196;28;20482;-69
2021/03/06 11:00:37;;;;;;;4.50;2.20;;;15.30;57.90;;;;;;5053312;28;20485;-70
2021/03/06 11:03:07;;;;;;;4.97;2.40;;;15.40;59.20;;;;;;5057813;28;20539;-69
2021/03/06 11:05:34;;;;;;;4.50;3.00;;;16.20;57.70;;;;;;5056241;28;20471;-69
2021/03/06 11:08:15;;;;;;;2.70;2.37;;;15.70;57.20;;;;;;5056243;28;20498;-69
2021/03/06 11:10:43;;;;;;;3.30;2.50;;;16.30;57.00;;;;;;5054999;28;20544;-68
2021/03/06 11:13:11;;;;;;;6.00;3.40;;;17.40;54.60;;;;;;5056419;28;20439;-69
2021/03/06 11:15:46;;;;;;;5.33;2.83;;;17.00;55.00;;;;;;5059834;28;20899;-69
2021/03/06 11:18:12;;;;;;;2.90;2.53;;;17.90;55.00;;;;;;5051469;28;20543;-68
2021/03/06 11:20:39;;;;;;;4.77;2.53;;;18.60;53.50;;;;;;5053973;28;20493;-69
2021/03/06 11:23:06;;;;;;;2.60;2.40;;;17.50;51.10;;;;;;5065700;28;20452;-70
2021/03/06 11:25:33;;;;;;;3.60;2.30;;;17.10;52.60;;;;;;5059830;28;20478;-69
2021/03/06 11:28:02;;;;;;;3.57;2.30;;;17.20;53.60;;;;;;5056414;28;20553;-69
2021/03/06 11:30:30;;;;;;;3.87;2.10;;;18.20;55.10;;;;;;5057834;28;21059;-69
2021/03/06 11:33:00;;;;;;;4.33;1.53;;;17.90;52.10;;;;;;5056942;28;20490;-69
2021/03/06 11:35:27;;;;;;;4.27;1.30;;;16.50;52.10;;;;;;5056275;28;20481;-69
2021/03/06 11:37:54;;;;;;;5.67;1.77;;;15.90;51.00;;;;;;5059616;28;20487;-69
2021/03/06 11:40:22;;;;;;;1.70;1.50;;;15.50;54.00;;;;;;5052436;28;20502;-68
2021/03/06 11:42:49;;;;;;;2.60;2.00;;;15.50;52.30;;;;;;5055536;28;20950;-69
2021/03/06 11:45:17;;;;;;;8.67;2.00;;;16.30;51.40;;;;;;5053334;28;20482;-69
2021/03/06 11:47:45;;;;;;;4.47;1.73;;;15.20;52.00;;;;;;5051708;28;20985;-69
2021/03/06 11:50:15;;;;;;;3.03;1.90;;;15.60;52.50;;;;;;5061574;28;20472;-69
2021/03/06 11:52:42;;;;;;;3.93;2.20;;;16.10;52.30;;;;;;5060453;28;20454;-69
2021/03/06 11:55:10;;;;;;;2.30;1.97;;;16.40;51.30;;;;;;5060255;28;20878;-69
2021/03/06 11:57:37;;;;;;;2.27;1.83;;;16.40;51.00;;;;;;5061524;28;20493;-69
2021/03/06 12:00:06;;;;;;;3.80;1.33;;;16.60;50.90;;;;;;5059065;28;20473;-69
2021/03/06 12:02:32;;;;;;;1.47;1.30;;;16.20;50.70;;;;;;5066313;28;21001;-69
2021/03/06 12:04:59;;;;;;;3.70;2.27;;;16.80;50.10;;;;;;5043349;28;20485;-69
2021/03/06 12:07:27;;;;;;;3.37;2.03;;;17.10;50.30;;;;;;5060054;28;20455;-69
2021/03/06 12:09:53;;;;;;;2.10;1.90;;;16.90;50.30;;;;;;5060052;28;20966;-69
2021/03/06 12:12:20;;;;;;;1.63;1.43;;;17.60;49.60;;;;;;5061311;28;20442;-69
2021/03/06 12:14:46;;;;;;;3.83;2.00;;;19.00;49.70;;;;;;5061447;28;20448;-69
2021/03/06 12:17:13;;;;;;;1.50;1.20;;;20.20;47.10;;;;;;5058309;28;20958;-69
2021/03/06 12:19:40;;;;;;;2.80;1.53;;;19.80;45.10;;;;;;5066109;28;20469;-70
2021/03/06 12:22:06;;;;;;;5.27;1.97;;;18.60;44.50;;;;;;5062453;28;20458;-69
2021/03/06 12:24:34;;;;;;;3.80;1.40;;;18.50;45.00;;;;;;5059727;28;21147;-68
2021/03/06 12:27:01;;;;;;;2.60;1.90;;;19.00;44.40;;;;;;5054857;28;20454;-67
2021/03/06 12:29:27;;;;;;;2.10;1.43;;;18.90;46.20;;;;;;5061569;28;20507;-69
2021/03/06 12:31:54;;;;;;;1.70;1.23;;;19.50;44.70;;;;;;5059928;28;21009;-68
2021/03/06 12:34:21;;;;;;;2.43;1.87;;;19.30;43.40;;;;;;5049014;28;20458;-68
2021/03/06 12:36:48;;;;;;;2.80;1.87;;;19.60;44.10;;;;;;5035899;28;20482;-68
2021/03/06 12:39:14;;;;;;;3.23;1.97;;;20.20;43.10;;;;;;5055299;28;20557;-68
2021/03/06 12:41:43;;;;;;;5.23;2.70;;;19.00;44.00;;;;;;5058285;28;20439;-68
2021/03/06 12:44:10;;;;;;;5.70;3.93;;;18.80;44.40;;;;;;5055626;28;20506;-67
2021/03/06 12:46:36;;;;;;;3.87;2.17;;;18.20;44.20;;;;;;5052769;28;20470;-68
2021/03/06 12:49:04;;;;;;;2.60;2.37;;;17.70;43.70;;;;;;5057597;28;21019;-68
2021/03/06 12:51:30;;;;;;;4.13;2.10;;;18.20;44.10;;;;;;5057773;28;20494;-67
2021/03/06 12:53:57;;;;;;;4.57;1.73;;;19.30;44.00;;;;;;5036054;28;20908;-68
2021/03/06 12:56:24;;;;;;;3.40;2.10;;;19.10;42.80;;;;;;5058754;28;20451;-68
2021/03/06 12:58:52;;;;;;;3.80;1.60;;;19.70;44.10;;;;;;5057090;28;20599;-68
2021/03/06 13:01:18;;;;;;;1.70;1.60;;;19.60;42.60;;;;;;5053749;28;20542;-69